createdAt,value
2018-12-12T00:03:05.041Z,17.37
2018-12-12T00:08:08.253Z,18.67
2018-12-12T00:13:11.413Z,17.03
2018-12-12T00:18:14.625Z,16.93
2018-12-12T00:23:17.764Z,17.93
2018-12-12T00:28:20.930Z,18.40
2018-12-12T00:33:24.086Z,17.03
2018-12-12T00:38:27.315Z,17.63
2018-12-12T00:43:34.208Z,16.13
2018-12-12T00:48:37.406Z,17.53
2018-12-12T00:53:40.528Z,15.57
2018-12-12T00:58:43.661Z,17.33
2018-12-12T01:03:46.858Z,17.60
2018-12-12T01:08:50.034Z,17.57
2018-12-12T01:13:53.226Z,19.53
2018-12-12T01:18:56.373Z,18.80
2018-12-12T01:24:00.521Z,18.93
2018-12-12T01:29:03.689Z,17.97
2018-12-12T01:34:06.846Z,18.37
2018-12-12T01:39:10.000Z,17.23
2018-12-12T01:44:13.138Z,18.47
2018-12-12T01:49:16.304Z,19.03
2018-12-12T01:54:19.436Z,17.03
2018-12-12T01:59:22.921Z,18.73
2018-12-12T02:04:26.117Z,20.13
2018-12-12T02:09:30.173Z,20.00
2018-12-12T02:14:33.302Z,19.40
2018-12-12T02:19:37.090Z,19.23
2018-12-12T02:24:40.293Z,19.07
2018-12-12T02:29:43.372Z,20.00
2018-12-12T02:34:46.465Z,19.57
2018-12-12T02:39:49.734Z,19.80
2018-12-12T02:44:52.909Z,17.63
2018-12-12T02:49:56.061Z,17.73
2018-12-12T02:54:59.337Z,16.63
2018-12-12T03:00:02.654Z,14.57
2018-12-12T03:05:06.070Z,14.90
2018-12-12T03:10:09.203Z,14.53
2018-12-12T03:15:13.118Z,14.57
2018-12-12T03:20:16.266Z,13.80
2018-12-12T03:25:19.406Z,13.97
2018-12-12T03:30:22.498Z,13.27
2018-12-12T03:35:25.726Z,15.13
2018-12-12T03:45:42.463Z,12.77
2018-12-12T03:50:45.573Z,13.50
2018-12-12T03:55:48.681Z,12.50
2018-12-12T04:00:51.786Z,11.83
2018-12-12T04:05:54.866Z,14.10
2018-12-12T04:10:59.729Z,12.67
2018-12-12T04:16:02.818Z,12.90
2018-12-12T04:21:05.890Z,13.87
2018-12-12T04:26:08.940Z,14.33
2018-12-12T04:31:12.007Z,15.23
2018-12-12T04:36:15.161Z,15.87
2018-12-12T04:41:18.261Z,15.50
2018-12-12T04:46:21.444Z,16.00
2018-12-12T04:51:24.564Z,16.93
2018-12-12T04:56:27.710Z,16.83
2018-12-12T05:01:30.832Z,15.90
2018-12-12T05:06:33.911Z,17.67
2018-12-12T05:11:37.164Z,19.37
2018-12-12T05:16:40.293Z,18.77
2018-12-12T05:21:43.387Z,18.57
2018-12-12T05:26:47.120Z,17.00
2018-12-12T05:31:50.385Z,16.43
2018-12-12T05:36:56.414Z,17.00
2018-12-12T05:42:00.625Z,17.43
2018-12-12T05:47:03.738Z,21.63
2018-12-12T05:52:06.896Z,21.30
2018-12-12T05:57:10.037Z,19.60
2018-12-12T06:02:13.306Z,19.50
2018-12-12T06:07:16.489Z,19.13
2018-12-12T06:12:20.597Z,18.90
2018-12-12T06:17:23.728Z,20.00
2018-12-12T06:22:27.804Z,19.60
2018-12-12T06:27:30.910Z,20.77
2018-12-12T06:32:35.733Z,19.67
2018-12-12T06:37:39.021Z,19.23
2018-12-12T06:42:42.130Z,18.20
2018-12-12T06:47:45.237Z,19.07
2018-12-12T06:52:48.353Z,19.30
2018-12-12T06:57:51.519Z,19.60
2018-12-12T07:02:54.629Z,17.13
2018-12-12T07:07:57.728Z,19.33
2018-12-12T07:13:00.869Z,20.47
2018-12-12T07:18:03.991Z,20.67
2018-12-12T07:23:07.125Z,18.97
2018-12-12T07:28:10.253Z,19.20
2018-12-12T07:33:13.357Z,20.63
2018-12-12T07:38:16.446Z,19.43
2018-12-12T07:43:19.581Z,19.13
2018-12-12T07:48:22.749Z,20.27
2018-12-12T07:53:26.410Z,18.63
2018-12-12T07:58:29.596Z,17.13
2018-12-12T08:03:32.694Z,19.97
2018-12-12T08:08:36.696Z,20.00
2018-12-12T08:13:39.825Z,21.10
2018-12-12T08:18:43.128Z,16.80
2018-12-12T08:23:49.101Z,19.70
2018-12-12T08:28:52.209Z,20.53
2018-12-12T08:33:55.386Z,22.47
2018-12-12T08:38:58.505Z,21.77
2018-12-12T08:44:01.630Z,20.30
2018-12-12T08:49:04.800Z,19.93
2018-12-12T08:54:07.946Z,21.17
2018-12-12T08:59:11.050Z,19.97
2018-12-12T09:04:14.164Z,22.43
2018-12-12T09:09:17.338Z,19.50
2018-12-12T09:14:20.469Z,22.87
2018-12-12T09:19:23.592Z,22.27
2018-12-12T09:24:26.748Z,23.17
2018-12-12T09:29:29.923Z,20.80
2018-12-12T09:34:33.045Z,23.33
2018-12-12T09:39:36.156Z,19.30
2018-12-12T09:44:39.264Z,22.83
2018-12-12T09:49:42.404Z,21.47
2018-12-12T09:54:45.507Z,22.80
2018-12-12T09:59:49.352Z,23.00
2018-12-12T10:04:53.121Z,22.67
2018-12-12T10:09:56.277Z,21.00
2018-12-12T10:14:59.425Z,24.93
2018-12-12T10:20:02.606Z,24.20
2018-12-12T10:25:06.001Z,23.67
2018-12-12T10:30:09.264Z,22.80
2018-12-12T10:35:12.441Z,23.00
2018-12-12T10:40:15.648Z,21.57
2018-12-12T10:45:18.877Z,19.17
2018-12-12T10:50:22.011Z,19.37
2018-12-12T10:55:25.158Z,20.17
2018-12-12T11:00:29.006Z,19.00
2018-12-12T11:05:32.318Z,18.23
2018-12-12T11:10:35.722Z,20.73
2018-12-12T11:15:38.904Z,18.23
2018-12-12T11:20:42.098Z,19.87
2018-12-12T11:25:45.481Z,20.00
2018-12-12T11:30:48.664Z,19.00
2018-12-12T11:35:51.851Z,20.20
2018-12-12T11:40:54.981Z,20.50
2018-12-12T11:45:58.159Z,18.53
2018-12-12T11:51:01.338Z,16.33
2018-12-12T11:56:04.502Z,18.60
2018-12-12T12:01:08.561Z,17.30
2018-12-12T12:06:11.738Z,18.77
2018-12-12T12:11:15.770Z,18.87
2018-12-12T12:16:18.945Z,19.00
2018-12-12T12:21:22.093Z,18.13
2018-12-12T12:26:25.911Z,15.57
2018-12-12T12:31:29.268Z,14.80
2018-12-12T12:36:32.478Z,15.00
2018-12-12T12:41:35.626Z,13.57
2018-12-12T12:46:38.785Z,14.43
2018-12-12T12:51:41.939Z,15.07
2018-12-12T12:56:45.184Z,15.27
2018-12-12T13:01:48.313Z,16.57
2018-12-12T13:06:51.489Z,20.73
2018-12-12T13:11:54.687Z,16.47
2018-12-12T13:16:57.901Z,16.70
2018-12-12T13:22:01.092Z,16.67
2018-12-12T13:27:04.240Z,21.57
2018-12-12T13:32:07.377Z,16.50
2018-12-12T13:37:10.535Z,15.40
2018-12-12T13:42:13.832Z,18.30
2018-12-12T13:47:17.431Z,17.47
2018-12-12T13:52:20.856Z,17.93
2018-12-12T13:57:24.645Z,16.00
2018-12-12T14:02:27.981Z,15.97
2018-12-12T14:07:31.216Z,17.20
2018-12-12T14:12:34.365Z,18.40
2018-12-12T14:17:37.549Z,15.90
2018-12-12T14:22:40.677Z,16.67
2018-12-12T14:27:43.831Z,16.30
2018-12-12T14:32:47.066Z,17.97
2018-12-12T14:37:50.219Z,14.73
2018-12-12T14:42:53.403Z,14.80
2018-12-12T14:47:56.605Z,14.80
2018-12-12T14:52:59.744Z,14.50
2018-12-12T14:58:02.921Z,14.67
2018-12-12T15:03:06.085Z,14.00
2018-12-12T15:08:09.346Z,15.10
2018-12-12T15:13:12.645Z,13.83
2018-12-12T15:18:15.820Z,15.47
2018-12-12T15:23:18.998Z,17.57
2018-12-12T15:28:22.141Z,14.90
2018-12-12T15:33:25.384Z,14.77
2018-12-12T15:38:28.539Z,15.00
2018-12-12T15:43:31.786Z,14.13
2018-12-12T15:48:34.977Z,14.47
2018-12-12T15:53:38.160Z,15.53
2018-12-12T15:58:41.292Z,18.13
2018-12-12T16:03:44.447Z,16.03
2018-12-12T16:08:47.638Z,14.80
2018-12-12T16:13:50.896Z,14.23
2018-12-12T16:18:54.099Z,25.03
2018-12-12T16:23:57.331Z,18.10
2018-12-12T16:29:00.534Z,23.67
2018-12-12T16:34:04.593Z,13.50
2018-12-12T16:39:08.338Z,13.40
2018-12-12T16:44:11.510Z,10.93
2018-12-12T16:49:14.810Z,11.23
2018-12-12T16:54:18.019Z,11.67
2018-12-12T16:59:22.007Z,9.73
2018-12-12T17:04:25.233Z,9.47
2018-12-12T17:09:28.575Z,8.03
2018-12-12T17:14:31.781Z,7.43
2018-12-12T17:19:35.023Z,8.37
2018-12-12T17:24:38.286Z,7.07
2018-12-12T17:29:41.621Z,8.40
2018-12-12T17:34:44.868Z,7.43
2018-12-12T17:39:48.662Z,8.10
2018-12-12T17:44:52.027Z,7.70
2018-12-12T17:55:11.469Z,6.50
2018-12-12T18:00:14.839Z,5.30
2018-12-12T18:05:18.050Z,5.67
2018-12-12T18:10:21.327Z,5.57
2018-12-12T18:15:24.690Z,6.80
2018-12-12T18:20:28.028Z,4.90
2018-12-12T18:25:31.401Z,6.60
2018-12-12T18:30:35.009Z,5.40
2018-12-12T18:35:38.265Z,4.80
2018-12-12T18:40:41.565Z,5.47
2018-12-12T18:45:44.930Z,4.97
2018-12-12T18:50:48.326Z,5.60
2018-12-12T18:55:52.167Z,6.00
2018-12-12T19:00:56.274Z,7.70
2018-12-12T19:05:59.467Z,7.00
2018-12-12T19:11:02.757Z,6.10
2018-12-12T19:16:06.045Z,7.67
2018-12-12T19:21:09.349Z,6.37
2018-12-12T19:26:12.609Z,7.00
2018-12-12T19:31:15.879Z,6.57
2018-12-12T19:36:19.179Z,6.33
2018-12-12T19:41:22.464Z,6.80
2018-12-12T19:46:25.751Z,6.53
2018-12-12T19:51:29.074Z,7.00
2018-12-12T19:56:32.453Z,6.83
2018-12-12T20:01:35.705Z,7.53
2018-12-12T20:06:39.066Z,7.13
2018-12-12T20:11:42.564Z,7.30
2018-12-12T20:16:45.894Z,6.87
2018-12-12T20:21:49.198Z,7.20
2018-12-12T20:26:52.536Z,6.90
2018-12-12T20:31:55.888Z,8.20
2018-12-12T20:36:59.186Z,8.50
2018-12-12T20:42:03.518Z,8.73
2018-12-12T20:47:06.844Z,8.87
2018-12-12T20:52:10.157Z,8.53
2018-12-12T20:57:13.427Z,9.87
2018-12-12T21:02:16.710Z,9.37
2018-12-12T21:07:20.344Z,7.97
2018-12-12T21:12:23.800Z,7.93
2018-12-12T21:17:27.665Z,7.77
2018-12-12T21:22:30.898Z,8.43
2018-12-12T21:27:34.521Z,8.43
2018-12-12T21:32:38.508Z,7.70
2018-12-12T21:37:42.039Z,8.70
2018-12-12T21:42:46.717Z,8.43
2018-12-12T21:47:50.307Z,8.43
2018-12-12T21:52:53.529Z,6.83
2018-12-12T21:57:56.789Z,8.80
2018-12-12T22:03:00.265Z,8.30
2018-12-12T22:08:03.626Z,9.63
2018-12-12T22:13:07.262Z,8.20
2018-12-12T22:18:10.547Z,8.30
2018-12-12T22:23:13.770Z,8.70
2018-12-12T22:28:16.959Z,7.37
2018-12-12T22:33:20.250Z,8.33
2018-12-12T22:38:23.428Z,9.03
2018-12-12T22:43:26.667Z,9.40
2018-12-12T22:48:29.993Z,7.97
2018-12-12T22:53:33.206Z,8.70
2018-12-12T22:58:36.491Z,9.80
2018-12-12T23:03:39.993Z,8.97
2018-12-12T23:08:43.198Z,8.63
2018-12-12T23:13:46.424Z,8.37
2018-12-12T23:18:50.161Z,7.90
2018-12-12T23:23:54.160Z,9.50
2018-12-12T23:28:57.317Z,8.03
2018-12-12T23:34:00.509Z,9.43
2018-12-12T23:39:05.577Z,10.30
2018-12-12T23:44:08.782Z,9.27
2018-12-12T23:49:11.970Z,8.67
2018-12-12T23:54:15.168Z,9.70
2018-12-12T23:59:18.349Z,8.53
